createdAt,value
2023-03-06T00:01:09.104Z,2.17
2023-03-06T00:03:39.715Z,1.75
2023-03-06T00:06:07.331Z,2.63
2023-03-06T00:08:35.362Z,2.20
2023-03-06T00:11:02.467Z,2.17
2023-03-06T00:13:31.197Z,2.15
2023-03-06T00:16:01.324Z,1.40
2023-03-06T00:18:30.589Z,1.77
2023-03-06T00:21:00.949Z,1.70
2023-03-06T00:23:28.060Z,2.13
2023-03-06T00:25:55.186Z,1.83
2023-03-06T00:28:24.631Z,1.92
2023-03-06T00:30:51.983Z,1.67
2023-03-06T00:33:19.165Z,1.85
2023-03-06T00:35:48.545Z,1.90
2023-03-06T00:38:15.826Z,1.92
2023-03-06T00:40:43.248Z,2.22
2023-03-06T00:43:10.434Z,2.50
2023-03-06T00:45:38.746Z,2.70
2023-03-06T00:48:05.960Z,2.35
2023-03-06T00:50:34.067Z,2.55
2023-03-06T00:53:01.205Z,1.98
2023-03-06T00:55:29.544Z,2.85
2023-03-06T00:57:56.893Z,2.30
2023-03-06T01:00:24.417Z,2.00
2023-03-06T01:02:53.700Z,2.75
2023-03-06T01:05:22.753Z,3.58
2023-03-06T01:07:50.058Z,2.35
2023-03-06T01:10:17.486Z,2.53
2023-03-06T01:12:54.786Z,1.35
2023-03-06T01:15:22.700Z,1.95
2023-03-06T01:17:53.736Z,2.78
2023-03-06T01:20:22.381Z,2.80
2023-03-06T01:22:49.678Z,2.75
2023-03-06T01:25:18.266Z,2.35
2023-03-06T01:27:45.866Z,2.13
2023-03-06T01:30:13.882Z,2.30
2023-03-06T01:32:42.669Z,2.40
2023-03-06T01:35:10.780Z,2.65
2023-03-06T01:37:40.027Z,2.88
2023-03-06T01:40:08.929Z,2.95
2023-03-06T01:42:37.374Z,2.92
2023-03-06T01:45:13.655Z,2.25
2023-03-06T01:47:40.770Z,2.58
2023-03-06T01:50:11.695Z,2.15
2023-03-06T01:52:48.594Z,2.38
2023-03-06T01:55:21.222Z,2.20
2023-03-06T01:57:59.649Z,3.05
2023-03-06T02:00:29.152Z,4.20
2023-03-06T02:03:28.475Z,2.65
2023-03-06T02:05:55.952Z,2.35
2023-03-06T02:08:24.639Z,2.00
2023-03-06T02:11:25.686Z,3.28
2023-03-06T02:13:55.101Z,2.80
2023-03-06T02:16:26.568Z,2.50
2023-03-06T02:18:54.301Z,2.65
2023-03-06T02:21:30.810Z,3.10
2023-03-06T02:24:04.545Z,3.15
2023-03-06T02:26:34.600Z,2.40
2023-03-06T02:29:01.973Z,3.05
2023-03-06T02:31:31.834Z,2.50
2023-03-06T02:34:15.256Z,3.40
2023-03-06T02:36:55.826Z,2.53
2023-03-06T02:39:28.138Z,3.83
2023-03-06T02:41:55.284Z,2.50
2023-03-06T02:44:23.873Z,4.78
2023-03-06T02:46:50.962Z,3.47
2023-03-06T02:49:18.115Z,4.05
2023-03-06T02:51:45.271Z,2.20
2023-03-06T02:54:18.368Z,2.75
2023-03-06T02:56:49.495Z,3.28
2023-03-06T02:59:17.003Z,3.00
2023-03-06T03:01:45.483Z,2.75
2023-03-06T03:04:13.527Z,3.65
2023-03-06T03:06:41.344Z,4.22
2023-03-06T03:09:09.141Z,2.65
2023-03-06T03:11:37.938Z,2.75
2023-03-06T03:14:05.339Z,3.85
2023-03-06T03:16:39.085Z,2.67
2023-03-06T03:19:10.385Z,3.05
2023-03-06T03:21:40.993Z,3.10
2023-03-06T03:24:08.634Z,2.22
2023-03-06T03:26:36.394Z,3.88
2023-03-06T03:29:12.060Z,3.22
2023-03-06T03:31:40.525Z,2.95
2023-03-06T03:34:08.775Z,2.83
2023-03-06T03:36:39.560Z,3.17
2023-03-06T03:39:09.257Z,2.70
2023-03-06T03:41:38.026Z,3.38
2023-03-06T03:44:08.995Z,2.30
2023-03-06T03:46:36.998Z,2.30
2023-03-06T03:49:09.774Z,3.83
2023-03-06T03:51:39.268Z,3.50
2023-03-06T03:54:07.251Z,3.92
2023-03-06T03:56:44.527Z,2.60
2023-03-06T03:59:21.147Z,2.72
2023-03-06T04:01:59.679Z,3.55
2023-03-06T04:04:27.739Z,2.65
2023-03-06T04:06:54.916Z,3.33
2023-03-06T04:09:22.393Z,2.67
2023-03-06T04:11:49.624Z,2.92
2023-03-06T04:14:17.258Z,3.80
2023-03-06T04:16:44.440Z,3.15
2023-03-06T04:19:11.837Z,3.28
2023-03-06T04:21:40.370Z,3.15
2023-03-06T04:24:09.134Z,4.40
2023-03-06T04:26:36.918Z,3.17
2023-03-06T04:29:04.941Z,3.42
2023-03-06T04:31:32.318Z,2.92
2023-03-06T04:33:59.449Z,3.25
2023-03-06T04:36:34.708Z,2.20
2023-03-06T04:39:08.546Z,2.85
2023-03-06T04:41:35.727Z,2.88
2023-03-06T04:44:03.080Z,3.45
2023-03-06T04:46:30.243Z,2.90
2023-03-06T04:48:58.382Z,3.47
2023-03-06T04:53:52.822Z,3.45
2023-03-06T04:56:22.080Z,4.13
2023-03-06T04:58:50.693Z,3.85
2023-03-06T05:01:18.673Z,2.85
2023-03-06T05:03:48.291Z,5.13
2023-03-06T05:06:24.933Z,3.05
2023-03-06T05:08:52.026Z,4.13
2023-03-06T05:11:22.746Z,3.50
2023-03-06T05:13:50.567Z,3.70
2023-03-06T05:16:18.341Z,3.08
2023-03-06T05:21:14.430Z,3.35
2023-03-06T05:23:42.123Z,3.53
2023-03-06T05:26:11.771Z,3.42
2023-03-06T05:28:39.411Z,3.92
2023-03-06T05:31:07.783Z,3.45
2023-03-06T05:33:35.836Z,2.83
2023-03-06T05:36:03.797Z,4.75
2023-03-06T05:38:32.128Z,4.25
2023-03-06T05:40:59.484Z,2.75
2023-03-06T05:43:26.778Z,3.30
2023-03-06T05:46:04.113Z,4.28
2023-03-06T05:48:35.751Z,4.57
2023-03-06T05:51:04.690Z,3.80
2023-03-06T05:53:34.427Z,3.20
2023-03-06T05:56:04.569Z,4.22
2023-03-06T05:58:36.138Z,4.03
2023-03-06T06:01:16.007Z,4.00
2023-03-06T06:03:44.527Z,3.72
2023-03-06T06:06:13.699Z,3.97
2023-03-06T06:08:41.432Z,5.03
2023-03-06T06:11:10.180Z,3.92
2023-03-06T06:13:38.488Z,5.22
2023-03-06T06:16:15.747Z,5.18
2023-03-06T06:18:43.976Z,4.45
2023-03-06T06:21:13.502Z,3.53
2023-03-06T06:23:41.981Z,3.45
2023-03-06T06:26:10.375Z,4.25
2023-03-06T06:28:38.506Z,3.63
2023-03-06T06:31:14.262Z,4.10
2023-03-06T06:33:41.681Z,3.78
2023-03-06T06:36:17.240Z,3.83
2023-03-06T06:38:44.374Z,3.83
2023-03-06T06:41:38.997Z,4.05
2023-03-06T06:43:59.258Z,4.88
2023-03-06T06:47:10.825Z,3.70
2023-03-06T06:49:15.246Z,3.85
2023-03-06T06:51:42.440Z,4.15
2023-03-06T06:54:10.760Z,4.32
2023-03-06T06:56:38.167Z,4.05
2023-03-06T06:59:16.069Z,5.18
2023-03-06T07:01:44.501Z,3.97
2023-03-06T07:04:13.286Z,3.22
2023-03-06T07:06:41.343Z,4.10
2023-03-06T07:11:38.246Z,3.13
2023-03-06T07:14:05.676Z,5.15
2023-03-06T07:16:33.127Z,3.15
2023-03-06T07:19:00.257Z,3.40
2023-03-06T07:21:27.772Z,3.75
2023-03-06T07:23:59.500Z,4.90
2023-03-06T07:26:42.953Z,4.07
2023-03-06T07:29:12.362Z,3.08
2023-03-06T07:31:50.334Z,4.38
2023-03-06T07:34:17.364Z,3.72
2023-03-06T07:36:44.403Z,3.03
2023-03-06T07:39:11.510Z,4.05
2023-03-06T07:41:38.658Z,4.28
2023-03-06T07:44:05.753Z,3.78
2023-03-06T07:46:32.863Z,3.45
2023-03-06T07:48:59.991Z,4.90
2023-03-06T07:51:27.106Z,5.10
2023-03-06T07:53:54.309Z,3.35
2023-03-06T07:56:21.538Z,4.70
2023-03-06T07:58:48.727Z,3.95
2023-03-06T08:01:19.850Z,3.30
2023-03-06T08:03:49.880Z,4.60
2023-03-06T08:06:22.803Z,3.92
2023-03-06T08:08:51.418Z,4.57
2023-03-06T08:11:21.007Z,3.58
2023-03-06T08:13:48.894Z,3.75
2023-03-06T08:18:46.227Z,4.20
2023-03-06T08:21:16.120Z,3.38
2023-03-06T08:23:43.918Z,3.88
2023-03-06T08:28:39.730Z,3.60
2023-03-06T08:31:19.695Z,3.70
2023-03-06T08:33:47.141Z,3.95
2023-03-06T08:36:14.218Z,4.30
2023-03-06T08:38:41.438Z,4.78
2023-03-06T08:41:08.658Z,4.78
2023-03-06T08:43:36.054Z,3.67
2023-03-06T08:46:03.366Z,3.78
2023-03-06T08:48:33.730Z,3.25
2023-03-06T08:51:08.077Z,5.25
2023-03-06T08:53:46.663Z,4.07
2023-03-06T08:56:18.263Z,4.13
2023-03-06T08:58:45.975Z,4.10
2023-03-06T09:01:19.842Z,3.58
2023-03-06T09:03:47.585Z,4.32
2023-03-06T09:06:15.495Z,3.97
2023-03-06T09:08:53.356Z,4.05
2023-03-06T09:13:49.294Z,4.60
2023-03-06T09:16:16.698Z,4.78
2023-03-06T09:18:52.929Z,6.15
2023-03-06T09:21:21.909Z,4.05
2023-03-06T09:23:49.559Z,5.00
2023-03-06T09:26:16.815Z,6.07
2023-03-06T09:28:43.963Z,4.90
2023-03-06T09:31:14.062Z,4.07
2023-03-06T09:33:41.446Z,4.07
2023-03-06T09:36:13.708Z,4.57
2023-03-06T09:38:41.086Z,4.55
2023-03-06T09:41:26.493Z,4.25
2023-03-06T09:44:04.783Z,5.13
2023-03-06T09:47:01.132Z,5.10
2023-03-06T09:50:10.315Z,4.57
2023-03-06T09:52:46.482Z,4.82
2023-03-06T09:55:20.446Z,3.75
2023-03-06T10:01:19.196Z,4.70
2023-03-06T10:04:12.671Z,5.07
2023-03-06T10:06:53.638Z,4.88
2023-03-06T10:09:28.462Z,5.70
2023-03-06T10:12:02.565Z,4.20
2023-03-06T10:14:38.749Z,3.80
2023-03-06T10:17:11.239Z,6.55
2023-03-06T10:19:42.241Z,4.22
2023-03-06T10:22:30.750Z,6.40
2023-03-06T10:25:10.469Z,5.35
2023-03-06T10:27:51.185Z,5.50
2023-03-06T10:30:31.204Z,5.30
2023-03-06T10:33:02.084Z,5.63
2023-03-06T10:35:40.646Z,6.68
2023-03-06T10:38:23.424Z,5.38
2023-03-06T10:41:21.048Z,5.45
2023-03-06T10:44:18.530Z,4.75
2023-03-06T10:49:14.163Z,5.35
2023-03-06T10:51:56.256Z,5.37
2023-03-06T10:54:23.720Z,4.95
2023-03-06T10:56:50.908Z,4.30
2023-03-06T10:59:22.926Z,6.22
2023-03-06T11:01:53.986Z,5.93
2023-03-06T11:04:21.802Z,5.65
2023-03-06T11:09:23.387Z,4.90
2023-03-06T11:11:51.361Z,4.97
2023-03-06T11:14:22.908Z,5.57
2023-03-06T11:16:53.426Z,5.10
2023-03-06T11:19:29.674Z,5.45
2023-03-06T11:22:07.027Z,6.68
2023-03-06T11:24:42.306Z,5.38
2023-03-06T11:27:34.854Z,4.82
2023-03-06T11:30:34.949Z,5.53
2023-03-06T11:33:11.229Z,7.35
2023-03-06T11:35:49.554Z,7.38
2023-03-06T11:38:34.252Z,6.15
2023-03-06T11:41:05.866Z,5.97
2023-03-06T11:44:02.581Z,6.20
2023-03-06T11:46:43.946Z,6.80
2023-03-06T11:49:25.671Z,5.55
2023-03-06T11:51:56.327Z,6.45
2023-03-06T11:54:23.751Z,5.50
2023-03-06T11:57:12.448Z,5.65
2023-03-06T11:59:51.635Z,7.13
2023-03-06T12:02:25.673Z,6.35
2023-03-06T12:05:30.726Z,6.35
2023-03-06T12:08:17.441Z,5.05
2023-03-06T12:10:57.369Z,6.13
2023-03-06T12:14:04.077Z,5.65
2023-03-06T12:16:53.479Z,6.28
2023-03-06T12:19:42.466Z,6.95
2023-03-06T12:22:29.616Z,5.65
2023-03-06T12:25:19.637Z,7.15
2023-03-06T12:28:11.484Z,6.60
2023-03-06T12:31:16.658Z,6.40
2023-03-06T12:34:10.036Z,7.30
2023-03-06T12:36:55.515Z,5.20
2023-03-06T12:39:55.881Z,7.10
2023-03-06T12:42:35.942Z,6.30
2023-03-06T12:45:21.912Z,5.47
2023-03-06T12:48:01.211Z,5.00
2023-03-06T12:50:38.161Z,4.80
2023-03-06T12:53:32.303Z,5.45
2023-03-06T12:56:02.072Z,5.72
2023-03-06T12:58:30.844Z,5.43
2023-03-06T13:01:20.062Z,4.47
2023-03-06T13:04:08.162Z,5.53
2023-03-06T13:06:51.229Z,5.32
2023-03-06T13:09:29.182Z,6.30
2023-03-06T13:14:48.632Z,4.65
2023-03-06T13:17:30.492Z,5.40
2023-03-06T13:20:43.268Z,5.97
2023-03-06T13:23:29.114Z,4.65
2023-03-06T13:26:01.980Z,5.20
2023-03-06T13:28:50.360Z,3.53
2023-03-06T13:31:28.272Z,4.47
2023-03-06T13:34:00.826Z,3.72
2023-03-06T13:36:34.424Z,5.05
2023-03-06T13:39:05.731Z,4.70
2023-03-06T13:41:43.144Z,4.68
2023-03-06T13:44:32.231Z,4.15
2023-03-06T13:47:08.411Z,4.35
2023-03-06T13:49:49.462Z,3.90
2023-03-06T13:52:35.487Z,4.57
2023-03-06T13:55:41.728Z,4.45
2023-03-06T13:58:48.738Z,5.45
2023-03-06T14:01:36.083Z,4.90
2023-03-06T14:05:08.021Z,6.50
2023-03-06T14:07:43.697Z,6.15
2023-03-06T14:10:15.126Z,5.05
2023-03-06T14:12:59.848Z,6.35
2023-03-06T14:15:31.922Z,5.53
2023-03-06T14:18:23.583Z,5.90
2023-03-06T14:20:55.360Z,5.70
2023-03-06T14:23:43.408Z,5.22
2023-03-06T14:26:24.670Z,5.38
2023-03-06T14:28:52.043Z,5.72
2023-03-06T14:31:33.890Z,6.00
2023-03-06T14:34:05.208Z,4.85
2023-03-06T14:36:57.996Z,6.13
2023-03-06T14:39:47.120Z,5.90
2023-03-06T14:42:29.389Z,5.13
2023-03-06T14:45:22.660Z,4.93
2023-03-06T14:47:51.417Z,4.72
2023-03-06T14:50:29.552Z,4.70
2023-03-06T14:53:48.264Z,4.53
2023-03-06T14:56:24.196Z,5.32
2023-03-06T14:58:57.164Z,4.38
2023-03-06T15:01:48.344Z,4.72
2023-03-06T15:04:29.255Z,4.72
2023-03-06T15:06:57.846Z,4.00
2023-03-06T15:09:32.234Z,3.90
2023-03-06T15:12:07.983Z,3.78
2023-03-06T15:14:45.198Z,3.65
2023-03-06T15:17:46.337Z,3.65
2023-03-06T15:20:57.094Z,3.78
2023-03-06T15:23:34.594Z,3.72
2023-03-06T15:26:19.234Z,5.40
2023-03-06T15:29:07.005Z,3.25
2023-03-06T15:31:40.950Z,4.38
2023-03-06T15:34:09.223Z,3.60
2023-03-06T15:36:47.441Z,3.78
2023-03-06T15:39:34.700Z,3.65
2023-03-06T15:42:08.206Z,3.42
2023-03-06T15:44:38.212Z,3.75
2023-03-06T15:47:09.282Z,4.30
2023-03-06T15:49:38.765Z,5.22
2023-03-06T15:52:09.454Z,3.80
2023-03-06T15:54:39.647Z,3.65
2023-03-06T15:57:13.980Z,3.38
2023-03-06T15:59:43.831Z,3.90
2023-03-06T16:02:15.877Z,4.38
2023-03-06T16:04:44.118Z,4.57
2023-03-06T16:07:12.209Z,4.63
2023-03-06T16:09:40.720Z,4.45
2023-03-06T16:12:15.111Z,4.22
2023-03-06T16:14:42.416Z,4.30
2023-03-06T16:17:12.306Z,3.33
2023-03-06T16:19:42.642Z,3.97
2023-03-06T16:22:10.297Z,4.50
2023-03-06T16:24:37.628Z,2.92
2023-03-06T16:27:07.956Z,4.68
2023-03-06T16:29:35.630Z,2.88
2023-03-06T16:34:42.298Z,3.63
2023-03-06T16:37:16.068Z,3.33
2023-03-06T16:39:45.803Z,2.67
2023-03-06T16:42:13.039Z,2.78
2023-03-06T16:44:45.882Z,3.75
2023-03-06T16:47:18.741Z,2.88
2023-03-06T16:49:46.128Z,3.70
2023-03-06T16:52:14.622Z,4.63
2023-03-06T16:54:44.533Z,3.67
2023-03-06T16:57:17.470Z,3.90
2023-03-06T16:59:50.493Z,3.67
2023-03-06T17:02:17.650Z,2.65
2023-03-06T17:04:44.980Z,3.35
2023-03-06T17:07:13.020Z,3.40
2023-03-06T17:09:40.077Z,2.72
2023-03-06T17:12:10.188Z,3.50
2023-03-06T17:14:40.892Z,3.30
2023-03-06T17:17:08.046Z,3.08
2023-03-06T17:19:35.277Z,3.33
2023-03-06T17:22:05.078Z,4.05
2023-03-06T17:24:35.415Z,3.40
2023-03-06T17:27:02.550Z,4.07
2023-03-06T17:29:32.059Z,4.32
2023-03-06T17:32:00.029Z,3.13
2023-03-06T17:34:27.824Z,5.03
2023-03-06T17:39:25.104Z,4.38
2023-03-06T17:41:56.665Z,3.58
2023-03-06T17:44:34.430Z,3.45
2023-03-06T17:47:02.901Z,4.18
2023-03-06T17:49:32.439Z,3.40
2023-03-06T17:52:07.086Z,5.03
2023-03-06T17:54:34.574Z,3.85
2023-03-06T17:57:03.709Z,5.80
2023-03-06T17:59:34.419Z,4.03
2023-03-06T18:02:02.652Z,4.72
2023-03-06T18:04:38.945Z,4.20
2023-03-06T18:07:13.663Z,4.60
2023-03-06T18:09:50.266Z,4.93
2023-03-06T18:12:20.081Z,4.05
2023-03-06T18:14:48.731Z,3.80
2023-03-06T18:17:16.692Z,4.43
2023-03-06T18:19:49.609Z,5.63
2023-03-06T18:22:28.335Z,4.60
2023-03-06T18:24:58.528Z,5.22
2023-03-06T18:27:27.377Z,5.63
2023-03-06T18:29:55.786Z,5.68
2023-03-06T18:32:23.236Z,5.38
2023-03-06T18:34:55.281Z,4.90
2023-03-06T18:37:24.686Z,4.72
2023-03-06T18:40:15.634Z,3.88
2023-03-06T18:42:45.907Z,5.30
2023-03-06T18:45:16.493Z,4.25
2023-03-06T18:47:43.836Z,4.22
2023-03-06T18:50:16.499Z,4.70
2023-03-06T18:52:44.472Z,4.70
2023-03-06T18:55:15.613Z,4.45
2023-03-06T18:57:42.861Z,5.32
2023-03-06T19:00:10.799Z,4.88
2023-03-06T19:02:37.998Z,5.00
2023-03-06T19:05:05.498Z,5.97
2023-03-06T19:07:32.768Z,4.60
2023-03-06T19:09:59.848Z,5.05
2023-03-06T19:12:27.100Z,6.22
2023-03-06T19:14:54.329Z,7.00
2023-03-06T19:17:24.882Z,4.95
2023-03-06T19:19:53.264Z,4.45
2023-03-06T19:22:20.692Z,7.07
2023-03-06T19:24:50.181Z,6.03
2023-03-06T19:27:17.512Z,6.10
2023-03-06T19:29:44.705Z,6.90
2023-03-06T19:32:11.960Z,4.43
2023-03-06T19:34:40.082Z,4.85
2023-03-06T19:37:08.479Z,4.50
2023-03-06T19:39:35.648Z,5.30
2023-03-06T19:42:04.667Z,5.68
2023-03-06T19:44:31.933Z,5.32
2023-03-06T19:46:59.164Z,6.05
2023-03-06T19:49:26.644Z,6.13
2023-03-06T19:51:56.019Z,4.95
2023-03-06T19:54:26.855Z,5.93
2023-03-06T19:56:54.224Z,7.25
2023-03-06T19:59:21.606Z,6.20
2023-03-06T20:01:49.087Z,6.53
2023-03-06T20:04:17.054Z,6.60
2023-03-06T20:06:46.678Z,4.70
2023-03-06T20:09:14.120Z,5.60
2023-03-06T20:11:41.371Z,5.13
2023-03-06T20:14:10.454Z,6.72
2023-03-06T20:16:38.172Z,4.80
2023-03-06T20:19:06.157Z,5.80
2023-03-06T20:21:37.664Z,4.50
2023-03-06T20:24:07.110Z,5.32
2023-03-06T20:26:36.694Z,3.97
2023-03-06T20:29:03.930Z,5.28
2023-03-06T20:31:31.192Z,4.57
2023-03-06T20:33:59.470Z,4.15
2023-03-06T20:36:30.676Z,5.18
2023-03-06T20:39:01.897Z,4.57
2023-03-06T20:41:31.077Z,5.90
2023-03-06T20:44:00.414Z,4.97
2023-03-06T20:46:29.878Z,6.32
2023-03-06T20:48:58.286Z,5.30
2023-03-06T20:51:31.793Z,4.20
2023-03-06T20:54:10.086Z,4.85
2023-03-06T20:56:39.579Z,6.18
2023-03-06T20:59:11.982Z,5.03
2023-03-06T21:01:43.105Z,5.35
2023-03-06T21:04:20.425Z,6.82
2023-03-06T21:06:47.656Z,5.95
2023-03-06T21:09:25.943Z,6.68
2023-03-06T21:11:53.041Z,5.00
2023-03-06T21:14:20.231Z,4.70
2023-03-06T21:16:47.463Z,5.00
2023-03-06T21:19:17.236Z,4.40
2023-03-06T21:21:44.297Z,5.85
2023-03-06T21:24:11.429Z,7.05
2023-03-06T21:26:40.964Z,5.07
2023-03-06T21:29:09.150Z,6.32
2023-03-06T21:31:36.924Z,4.57
2023-03-06T21:36:35.812Z,3.80
2023-03-06T21:39:06.457Z,6.15
2023-03-06T21:41:34.137Z,4.88
2023-03-06T21:44:04.497Z,5.47
2023-03-06T21:46:32.508Z,4.63
2023-03-06T21:49:01.674Z,5.03
2023-03-06T21:51:29.008Z,7.00
2023-03-06T21:53:56.317Z,5.97
2023-03-06T21:56:25.403Z,5.60
2023-03-06T21:58:52.980Z,6.45
2023-03-06T22:01:26.790Z,5.57
2023-03-06T22:03:54.463Z,5.03
2023-03-06T22:06:27.784Z,5.10
2023-03-06T22:08:56.686Z,5.78
2023-03-06T22:11:25.514Z,6.15
2023-03-06T22:13:55.743Z,5.88
2023-03-06T22:16:22.930Z,4.43
2023-03-06T22:18:51.573Z,6.82
2023-03-06T22:21:22.250Z,5.20
2023-03-06T22:23:51.507Z,5.68
2023-03-06T22:26:22.592Z,4.53
2023-03-06T22:28:51.342Z,3.95
2023-03-06T22:31:25.161Z,5.28
2023-03-06T22:33:54.025Z,5.53
2023-03-06T22:36:25.251Z,4.07
2023-03-06T22:39:09.131Z,4.72
2023-03-06T22:41:39.893Z,4.13
2023-03-06T22:44:07.264Z,4.90
2023-03-06T22:46:34.527Z,6.38
2023-03-06T22:49:02.309Z,5.93
2023-03-06T22:51:29.729Z,6.65
2023-03-06T22:53:57.068Z,4.88
2023-03-06T22:56:27.677Z,5.53
2023-03-06T22:58:57.790Z,6.40
2023-03-06T23:01:28.048Z,5.05
2023-03-06T23:04:11.026Z,6.10
2023-03-06T23:06:46.364Z,6.43
2023-03-06T23:09:23.197Z,5.28
2023-03-06T23:12:12.092Z,6.93
2023-03-06T23:15:00.058Z,6.40
2023-03-06T23:17:54.581Z,5.63
2023-03-06T23:20:47.155Z,5.43
2023-03-06T23:23:37.175Z,3.58
2023-03-06T23:26:10.933Z,4.60
2023-03-06T23:28:38.991Z,6.85
2023-03-06T23:31:19.023Z,4.85
2023-03-06T23:33:46.347Z,6.00
2023-03-06T23:36:18.214Z,5.63
2023-03-06T23:38:45.802Z,7.18
2023-03-06T23:41:15.716Z,6.78
2023-03-06T23:43:43.235Z,5.03
2023-03-06T23:46:13.502Z,5.45
2023-03-06T23:48:42.327Z,5.90
2023-03-06T23:51:22.925Z,6.45
2023-03-06T23:54:00.638Z,5.32
2023-03-06T23:59:08.539Z,4.97
